Time;durP1;ratioP1;P1;durP2;ratioP2;P2;SDS_P1;SDS_P2;PMS_P1;PMS_P2;Temp;Humidity;BMP_temperature;BMP_pressure;BME280_temperature;BME280_humidity;BME280_pressure;Samples;Min_cycle;Max_cycle;Signal;HPM_P1;HPM_P2
2022/03/21 00:01:17;;;;;;;12.00;8.40;;;17.80;42.20;17.00;102660.00;;;;5056607;28;20502;-64
2022/03/21 00:04:04;;;;;;;14.35;8.98;;;17.80;42.30;17.00;102658.00;;;;5063073;28;20550;-64
2022/03/21 00:06:50;;;;;;;12.27;9.18;;;17.80;42.10;17.00;102641.00;;;;5040161;28;20033;-65
2022/03/21 00:09:36;;;;;;;12.02;8.35;;;17.80;42.10;17.00;102652.00;;;;5072477;28;20044;-64
2022/03/21 00:12:23;;;;;;;11.30;8.02;;;17.80;42.10;17.00;102657.00;;;;5047453;28;20044;-64
2022/03/21 00:15:10;;;;;;;12.57;8.90;;;17.80;42.10;17.00;102656.00;;;;5055356;28;20037;-64
2022/03/21 00:17:56;;;;;;;14.88;8.82;;;17.90;42.10;17.00;102656.00;;;;5044950;28;20036;-64
2022/03/21 00:20:47;;;;;;;11.73;8.90;;;17.80;42.10;17.00;102659.00;;;;5053028;28;20478;-64
2022/03/21 00:23:35;;;;;;;11.40;7.75;;;17.80;42.10;17.00;102629.00;;;;5041849;28;20127;-65
2022/03/21 00:26:21;;;;;;;12.35;7.90;;;17.90;42.10;17.00;102631.00;;;;5057873;28;20044;-64
2022/03/21 00:29:08;;;;;;;13.13;8.35;;;17.90;42.20;17.00;102641.00;;;;5054772;28;20394;-64
2022/03/21 00:31:55;;;;;;;12.48;8.57;;;17.80;42.10;17.00;102639.00;;;;5061135;28;20087;-64
2022/03/21 00:34:42;;;;;;;10.73;8.00;;;17.80;42.10;17.00;102643.00;;;;5054937;28;20055;-64
2022/03/21 00:37:28;;;;;;;10.98;8.63;;;17.90;42.20;17.00;102635.00;;;;5060299;28;20036;-64
2022/03/21 00:40:16;;;;;;;11.25;7.90;;;17.90;42.20;17.00;102644.00;;;;5043602;28;20068;-64
2022/03/21 00:43:03;;;;;;;11.63;7.93;;;17.90;42.20;17.00;102639.00;;;;5036557;28;20041;-64
2022/03/21 00:45:54;;;;;;;12.45;8.10;;;17.90;42.20;17.00;102640.00;;;;5050751;28;20115;-64
2022/03/21 00:48:40;;;;;;;10.73;7.10;;;17.90;42.20;17.00;102649.00;;;;5043178;28;20063;-64
2022/03/21 00:51:26;;;;;;;11.75;7.05;;;17.90;42.20;16.90;102652.00;;;;5063836;28;20506;-64
2022/03/21 00:54:12;;;;;;;11.02;7.65;;;17.70;42.10;17.00;102655.00;;;;5059481;28;20037;-64
2022/03/21 00:56:58;;;;;;;10.18;7.18;;;17.90;42.20;17.00;102661.00;;;;5065307;28;20039;-65
2022/03/21 00:59:44;;;;;;;11.43;7.28;;;17.80;42.20;17.00;102660.00;;;;5060473;28;20544;-64
2022/03/21 01:02:30;;;;;;;10.90;7.13;;;17.80;42.20;16.90;102652.00;;;;5055781;28;20049;-64
2022/03/21 01:05:16;;;;;;;10.85;6.90;;;17.90;42.20;17.00;102665.00;;;;5059339;28;20048;-64
2022/03/21 01:08:03;;;;;;;10.68;7.28;;;17.80;42.20;16.90;102649.00;;;;5059998;28;20478;-64
2022/03/21 01:10:49;;;;;;;9.20;6.47;;;17.80;42.20;16.90;102651.00;;;;5048563;28;20045;-64
2022/03/21 01:13:41;;;;;;;10.80;7.35;;;17.90;42.20;16.90;102641.00;;;;5062172;28;20051;-64
2022/03/21 01:16:27;;;;;;;10.13;6.93;;;17.80;42.20;16.90;102652.00;;;;5055747;28;20048;-64
2022/03/21 01:19:13;;;;;;;8.95;6.65;;;17.80;42.20;16.90;102652.00;;;;5062607;28;20058;-64
2022/03/21 01:21:59;;;;;;;11.55;7.07;;;17.80;42.20;16.90;102658.00;;;;5064167;28;20041;-64
2022/03/21 01:24:45;;;;;;;8.93;6.30;;;17.80;42.30;16.90;102659.00;;;;5056863;28;20378;-64
2022/03/21 01:27:34;;;;;;;9.93;6.22;;;17.80;42.30;16.90;102668.00;;;;5061310;28;20051;-64
2022/03/21 01:30:21;;;;;;;9.75;6.57;;;17.80;42.30;16.90;102665.00;;;;5061046;28;20044;-64
2022/03/21 01:33:09;;;;;;;9.32;6.28;;;17.80;42.30;16.90;102660.00;;;;5046410;28;20478;-64
2022/03/21 01:35:55;;;;;;;8.52;6.45;;;17.80;42.30;16.90;102660.00;;;;5065555;28;20032;-64
2022/03/21 01:38:41;;;;;;;9.27;6.28;;;17.80;42.30;16.90;102660.00;;;;5058995;28;20401;-64
2022/03/21 01:41:27;;;;;;;9.93;6.57;;;17.80;42.30;16.90;102665.00;;;;5057125;28;20041;-64
2022/03/21 01:44:14;;;;;;;10.82;6.85;;;17.70;42.30;16.90;102666.00;;;;5060914;28;20495;-64
2022/03/21 01:47:00;;;;;;;9.90;6.50;;;17.80;42.40;16.90;102665.00;;;;5062034;28;20054;-64
2022/03/21 01:49:46;;;;;;;8.38;6.47;;;17.80;42.40;16.90;102661.00;;;;5058162;28;20490;-64
2022/03/21 01:52:33;;;;;;;8.88;6.70;;;17.70;42.40;16.90;102664.00;;;;5044918;28;20120;-64
2022/03/21 01:58:26;;;;;;;10.68;7.10;;;17.70;42.40;16.90;102659.00;;;;5062635;28;20497;-64
2022/03/21 02:01:12;;;;;;;10.73;6.57;;;17.80;42.50;16.80;102656.00;;;;5058365;28;20115;-64
2022/03/21 02:03:59;;;;;;;11.07;6.80;;;17.70;42.50;16.90;102654.00;;;;5050190;28;20045;-64
2022/03/21 02:06:45;;;;;;;10.43;6.57;;;17.70;42.50;16.80;102646.00;;;;5042307;28;20037;-64
2022/03/21 02:09:31;;;;;;;10.38;7.28;;;17.70;42.60;16.80;102656.00;;;;5059780;28;20048;-64
2022/03/21 02:12:17;;;;;;;9.48;7.20;;;17.70;42.60;16.80;102658.00;;;;5059877;28;20389;-64
2022/03/21 02:15:04;;;;;;;11.45;6.78;;;17.70;42.60;16.80;102645.00;;;;5054451;28;20043;-64
2022/03/21 02:17:56;;;;;;;9.77;7.05;;;17.70;42.60;16.80;102649.00;;;;5044042;28;20040;-64
2022/03/21 02:20:42;;;;;;;11.48;7.75;;;17.70;42.70;16.80;102639.00;;;;5061321;28;20404;-64
2022/03/21 02:24:02;;;;;;;10.25;6.50;;;17.70;42.60;16.80;102633.00;;;;5041461;28;20049;-64
2022/03/21 02:26:48;;;;;;;;;;;17.70;42.70;16.80;102644.00;;;;5051003;28;20044;-64
2022/03/21 02:29:34;;;;;;;9.52;6.90;;;17.70;42.40;16.80;102633.00;;;;5060067;28;19919;-64
2022/03/21 02:32:20;;;;;;;10.05;7.22;;;17.70;42.50;16.80;102638.00;;;;5045919;28;20458;-65
2022/03/21 02:35:06;;;;;;;8.70;7.10;;;17.60;42.50;16.80;102626.00;;;;5026282;28;20089;-64
2022/03/21 02:37:52;;;;;;;9.65;6.65;;;17.70;42.60;16.80;102625.00;;;;5031832;28;20102;-64
2022/03/21 02:40:38;;;;;;;7.90;6.75;;;17.70;42.70;16.80;102631.00;;;;5057293;28;20040;-64
2022/03/21 02:43:24;;;;;;;11.15;7.78;;;17.70;43.40;16.80;102635.00;;;;5045245;28;20399;-64
2022/03/21 02:46:10;;;;;;;10.30;7.03;;;17.70;42.70;16.80;102624.00;;;;5061333;28;20040;-64
2022/03/21 02:48:58;;;;;;;12.32;7.32;;;17.60;42.70;16.80;102638.00;;;;5053455;28;20509;-64
2022/03/21 02:51:44;;;;;;;11.02;7.25;;;17.60;42.70;16.80;102630.00;;;;5057855;28;20045;-64
2022/03/21 02:54:31;;;;;;;10.88;7.43;;;17.60;42.80;16.80;102627.00;;;;5046655;28;20056;-64
2022/03/21 02:57:17;;;;;;;10.90;7.25;;;17.60;42.70;16.80;102638.00;;;;5048102;28;20052;-64
2022/03/21 03:00:04;;;;;;;9.27;6.78;;;17.70;42.80;16.80;102634.00;;;;5061424;28;20029;-64
2022/03/21 03:02:51;;;;;;;10.38;7.13;;;17.60;42.80;16.80;102631.00;;;;5052287;28;20053;-64
2022/03/21 03:05:37;;;;;;;9.93;7.13;;;17.50;42.70;16.80;102640.00;;;;5049168;28;20060;-64
2022/03/21 03:08:23;;;;;;;9.32;6.97;;;17.60;42.80;16.80;102638.00;;;;5061307;28;20517;-64
2022/03/21 03:11:10;;;;;;;8.32;6.97;;;17.60;42.80;16.80;102640.00;;;;5041613;28;20044;-64
2022/03/21 03:13:56;;;;;;;10.02;6.85;;;17.60;42.90;16.70;102635.00;;;;5027930;28;20156;-65
2022/03/21 03:16:42;;;;;;;11.55;7.30;;;17.60;42.90;16.70;102645.00;;;;5058122;28;20036;-64
2022/03/21 03:19:28;;;;;;;12.00;7.05;;;17.60;42.90;16.70;102643.00;;;;5065118;28;20044;-64
2022/03/21 03:22:14;;;;;;;10.15;7.10;;;17.60;42.90;16.70;102635.00;;;;5051574;28;20041;-64
2022/03/21 03:25:04;;;;;;;9.82;7.43;;;17.60;42.90;16.70;102643.00;;;;5026278;28;20126;-64
2022/03/21 03:27:50;;;;;;;9.68;6.88;;;17.60;42.90;16.70;102643.00;;;;5062287;28;20072;-64
2022/03/21 03:30:36;;;;;;;10.40;7.20;;;17.60;42.90;16.70;102645.00;;;;5047305;28;20111;-64
2022/03/21 03:33:22;;;;;;;9.65;7.38;;;17.50;42.90;16.70;102642.00;;;;5040108;28;20045;-64
2022/03/21 03:36:08;;;;;;;10.38;7.97;;;17.60;43.00;16.70;102643.00;;;;5042414;28;20180;-64
2022/03/21 03:38:54;;;;;;;12.07;7.18;;;17.50;42.90;16.70;102648.00;;;;5057527;28;20421;-65
2022/03/21 03:41:42;;;;;;;11.65;7.50;;;17.50;43.00;16.70;102650.00;;;;5041700;28;20445;-64
2022/03/21 03:44:28;;;;;;;11.35;8.13;;;17.50;42.90;16.70;102647.00;;;;5064086;28;20047;-64
2022/03/21 03:47:14;;;;;;;11.43;7.00;;;17.60;43.00;16.70;102644.00;;;;5052662;28;20037;-64
2022/03/21 03:50:00;;;;;;;12.15;7.75;;;17.60;43.00;16.70;102649.00;;;;5025825;28;20422;-64
2022/03/21 03:52:47;;;;;;;11.90;8.13;;;17.50;42.90;16.70;102645.00;;;;5054480;28;20041;-64
2022/03/21 03:55:33;;;;;;;10.80;7.07;;;17.50;42.90;16.70;102634.00;;;;5040893;28;20243;-64
2022/03/21 03:58:19;;;;;;;10.60;7.40;;;17.50;43.00;16.70;102648.00;;;;5063536;28;20100;-64
2022/03/21 04:01:06;;;;;;;12.20;7.82;;;17.50;43.00;16.70;102653.00;;;;5059755;28;20292;-64
2022/03/21 04:03:52;;;;;;;9.95;6.78;;;17.50;43.00;16.70;102647.00;;;;5050795;28;20048;-64
2022/03/21 04:06:38;;;;;;;9.32;6.90;;;17.50;43.00;16.70;102643.00;;;;5064362;28;20047;-64
2022/03/21 04:09:24;;;;;;;10.13;7.18;;;17.50;43.00;16.60;102646.00;;;;5044044;28;20610;-64
2022/03/21 04:12:10;;;;;;;12.75;7.55;;;17.50;43.00;16.60;102660.00;;;;5061774;28;20041;-64
2022/03/21 04:14:57;;;;;;;11.57;7.55;;;17.40;42.90;16.60;102651.00;;;;5040794;28;20483;-64
2022/03/21 04:17:43;;;;;;;9.23;6.83;;;17.50;43.00;16.60;102643.00;;;;5055600;28;20103;-64
2022/03/21 04:20:31;;;;;;;14.32;7.80;;;17.50;43.00;16.60;102658.00;;;;5059894;28;20033;-64
2022/03/21 04:23:20;;;;;;;10.35;8.00;;;17.40;42.90;16.60;102662.00;;;;5041285;28;20045;-64
2022/03/21 04:26:06;;;;;;;11.23;7.85;;;17.40;42.90;16.60;102659.00;;;;5054666;28;20041;-64
2022/03/21 04:28:52;;;;;;;11.43;7.20;;;17.40;42.90;16.60;102661.00;;;;5060859;28;20048;-64
2022/03/21 04:31:38;;;;;;;10.18;7.18;;;17.40;42.90;16.60;102653.00;;;;5057801;28;20045;-64
2022/03/21 04:34:24;;;;;;;10.18;7.35;;;17.40;43.00;16.60;102659.00;;;;5054229;28;20160;-64
2022/03/21 04:37:10;;;;;;;11.52;8.32;;;17.40;43.00;16.60;102663.00;;;;5056184;28;20040;-64
2022/03/21 04:39:56;;;;;;;10.85;7.22;;;17.40;43.00;16.60;102663.00;;;;5059436;28;20044;-64
2022/03/21 04:42:42;;;;;;;11.82;7.63;;;17.40;43.00;16.60;102662.00;;;;5060849;28;20032;-64
2022/03/21 04:45:28;;;;;;;10.40;7.53;;;17.40;43.00;16.60;102667.00;;;;5055619;28;20048;-64
2022/03/21 04:48:14;;;;;;;11.25;7.13;;;17.40;43.00;16.50;102666.00;;;;5048300;28;20122;-64
2022/03/21 04:51:00;;;;;;;9.40;7.18;;;17.40;43.00;16.50;102674.00;;;;5054990;28;20037;-64
2022/03/21 04:53:46;;;;;;;10.88;7.30;;;17.40;43.00;16.50;102673.00;;;;5040759;28;20123;-64
2022/03/21 04:56:32;;;;;;;12.48;7.70;;;17.30;43.00;16.50;102671.00;;;;5061928;28;20375;-64
2022/03/21 04:59:18;;;;;;;11.07;7.72;;;17.30;43.00;16.50;102679.00;;;;5061909;28;20457;-64
2022/03/21 05:02:05;;;;;;;10.50;7.00;;;17.30;43.00;16.50;102676.00;;;;5060674;28;20398;-64
2022/03/21 05:04:51;;;;;;;9.93;6.50;;;17.30;43.30;16.50;102684.00;;;;5042043;28;20398;-64
2022/03/21 05:07:42;;;;;;;11.70;7.32;;;17.30;43.00;16.50;102678.00;;;;5064272;28;20681;-64
2022/03/21 05:10:28;;;;;;;10.65;7.53;;;17.30;43.10;16.50;102692.00;;;;5040712;28;20482;-64
2022/03/21 05:13:15;;;;;;;12.43;7.65;;;17.30;43.00;16.50;102675.00;;;;5063348;28;20048;-64
2022/03/21 05:16:01;;;;;;;10.52;7.63;;;17.30;43.00;16.50;102683.00;;;;5053236;28;20495;-64
2022/03/21 05:18:48;;;;;;;10.55;6.95;;;17.30;43.00;16.40;102685.00;;;;5052645;28;20079;-64
2022/03/21 05:21:34;;;;;;;10.88;7.43;;;17.30;43.70;16.50;102690.00;;;;5059905;28;20472;-64
2022/03/21 05:36:39;;;;;;;11.80;7.35;;;17.20;43.00;16.40;102692.00;;;;5048765;28;20043;-64
2022/03/21 05:39:25;;;;;;;8.90;6.55;;;17.20;43.00;16.40;102693.00;;;;5060966;28;20043;-64
2022/03/21 05:42:11;;;;;;;9.05;6.57;;;17.20;43.00;16.40;102682.00;;;;5057229;28;20044;-64
2022/03/21 05:44:57;;;;;;;10.05;7.03;;;17.20;43.00;16.40;102698.00;;;;5065684;28;20037;-64
2022/03/21 05:50:47;;;;;;;10.88;7.68;;;17.20;43.00;16.40;102704.00;;;;5061286;28;20032;-64
2022/03/21 05:53:33;;;;;;;11.18;7.60;;;17.20;43.00;16.30;102688.00;;;;5059820;28;20071;-64
2022/03/21 05:56:20;;;;;;;11.32;7.47;;;17.20;43.00;16.40;102699.00;;;;5057718;28;20497;-64
2022/03/21 06:02:10;;;;;;;12.70;7.50;;;17.10;43.00;16.30;102700.00;;;;5048703;28;20047;-64
2022/03/21 06:04:56;;;;;;;10.57;7.43;;;17.10;43.00;16.30;102707.00;;;;5058330;28;20412;-64
2022/03/21 06:07:42;;;;;;;11.63;7.70;;;17.10;43.00;16.30;102702.00;;;;5062355;28;20040;-65
2022/03/21 06:10:29;;;;;;;8.73;6.43;;;17.10;43.00;16.30;102704.00;;;;5059844;28;20053;-64
2022/03/21 06:13:16;;;;;;;9.23;7.13;;;17.10;43.00;16.30;102704.00;;;;5063001;28;20040;-64
2022/03/21 06:16:22;;;;;;;11.07;7.88;;;17.10;43.00;16.30;102715.00;;;;5054218;28;20123;-64
2022/03/21 06:19:08;;;;;;;11.48;6.95;;;17.10;43.00;16.30;102717.00;;;;5056969;28;20128;-64
2022/03/21 06:21:54;;;;;;;15.70;7.57;;;17.10;43.00;16.30;102718.00;;;;5064053;28;20428;-64
2022/03/21 06:24:40;;;;;;;10.18;7.50;;;17.10;43.00;16.30;102723.00;;;;5042149;28;20036;-64
2022/03/21 06:27:26;;;;;;;11.27;8.00;;;17.10;43.00;16.30;102725.00;;;;5066180;28;20406;-64
2022/03/21 06:30:12;;;;;;;9.23;7.07;;;17.10;43.00;16.30;102725.00;;;;5057281;28;20068;-64
2022/03/21 06:32:58;;;;;;;9.77;7.70;;;17.10;43.00;16.30;102730.00;;;;5054339;28;20048;-64
2022/03/21 06:35:45;;;;;;;10.30;7.63;;;17.10;43.00;16.30;102738.00;;;;5045950;28;20119;-64
2022/03/21 06:38:31;;;;;;;11.10;7.15;;;17.10;43.00;16.30;102740.00;;;;5063418;28;20049;-64
2022/03/21 06:41:17;;;;;;;11.57;8.07;;;17.10;43.00;16.30;102744.00;;;;5055397;28;20116;-64
2022/03/21 06:44:03;;;;;;;10.98;8.23;;;17.10;43.70;16.30;102741.00;;;;5059149;28;20078;-64
2022/03/21 06:46:50;;;;;;;11.25;7.97;;;17.10;43.00;16.30;102736.00;;;;5052329;28;20045;-64
2022/03/21 06:49:36;;;;;;;11.07;7.25;;;17.10;43.00;16.30;102740.00;;;;5056047;28;20048;-64
2022/03/21 06:52:25;;;;;;;10.88;8.23;;;17.10;43.00;16.30;102743.00;;;;5065446;28;20063;-64
2022/03/21 06:55:12;;;;;;;11.43;7.57;;;17.10;43.00;16.30;102743.00;;;;5063297;28;20036;-64
2022/03/21 06:58:01;;;;;;;10.40;8.15;;;17.10;43.00;16.30;102739.00;;;;5060407;28;20041;-64
2022/03/21 07:00:47;;;;;;;13.77;8.50;;;17.10;43.00;16.30;102748.00;;;;5043720;28;20040;-64
2022/03/21 07:03:33;;;;;;;11.15;7.60;;;17.10;43.00;16.30;102747.00;;;;5049616;28;21184;-64
2022/03/21 07:06:19;;;;;;;12.25;7.85;;;17.10;42.90;16.30;102745.00;;;;5058924;28;20402;-64
2022/03/21 07:09:05;;;;;;;10.45;7.63;;;17.10;42.90;16.30;102746.00;;;;5065354;28;20040;-64
2022/03/21 07:11:52;;;;;;;11.23;7.28;;;17.10;42.90;16.30;102748.00;;;;5047207;28;20052;-65
2022/03/21 07:14:38;;;;;;;9.68;7.75;;;17.10;42.90;16.30;102754.00;;;;5069205;28;20048;-64
2022/03/21 07:17:24;;;;;;;10.98;7.47;;;17.10;42.80;16.30;102747.00;;;;5059118;28;20057;-64
2022/03/21 07:20:11;;;;;;;10.07;7.78;;;17.10;42.80;16.30;102749.00;;;;5055776;28;20037;-64
2022/03/21 07:22:58;;;;;;;9.43;7.18;;;17.10;42.80;16.30;102749.00;;;;5065125;28;20040;-64
2022/03/21 07:25:44;;;;;;;8.93;7.68;;;17.10;42.80;16.30;102755.00;;;;5058565;28;20444;-64
2022/03/21 07:28:31;;;;;;;11.30;7.80;;;17.20;42.80;16.40;102753.00;;;;5055708;28;20106;-65
2022/03/21 07:31:17;;;;;;;10.75;8.18;;;17.20;42.70;16.40;102746.00;;;;5057018;28;20417;-64
2022/03/21 07:34:03;;;;;;;10.38;7.60;;;17.20;42.70;16.40;102763.00;;;;5057043;28;20087;-64
2022/03/21 07:36:50;;;;;;;11.20;7.53;;;17.30;42.70;16.40;102750.00;;;;5042732;28;20032;-64
2022/03/21 07:39:37;;;;;;;8.98;7.05;;;17.30;42.70;16.40;102753.00;;;;5059421;28;20029;-64
2022/03/21 07:42:23;;;;;;;12.23;7.57;;;17.30;42.60;16.40;102755.00;;;;5058003;28;20045;-64
2022/03/21 07:48:15;;;;;;;10.57;7.53;;;17.30;42.50;16.40;102759.00;;;;5056957;28;20560;-64
2022/03/21 07:51:02;;;;;;;10.73;8.13;;;17.30;42.50;16.40;102756.00;;;;5056970;28;20234;-64
2022/03/21 07:53:48;;;;;;;10.23;7.83;;;17.30;42.50;16.40;102770.00;;;;5048010;28;20075;-64
2022/03/21 07:56:34;;;;;;;9.70;7.32;;;17.30;42.50;16.40;102758.00;;;;5060399;28;20270;-64
2022/03/21 07:59:20;;;;;;;10.75;8.13;;;17.30;42.50;16.40;102760.00;;;;5056088;28;20052;-64
2022/03/21 08:02:07;;;;;;;10.10;6.90;;;17.30;42.40;16.40;102757.00;;;;5058060;28;20048;-64
2022/03/21 08:04:53;;;;;;;12.48;7.80;;;17.30;42.40;16.40;102769.00;;;;5055590;28;20041;-64
2022/03/21 08:07:40;;;;;;;10.85;8.00;;;17.30;42.30;16.40;102769.00;;;;5058643;28;20039;-64
2022/03/21 08:10:27;;;;;;;9.98;7.32;;;17.30;42.30;16.40;102768.00;;;;5047496;28;20059;-64
2022/03/21 08:13:17;;;;;;;10.15;7.22;;;17.40;42.30;16.40;102771.00;;;;5054987;28;20037;-64
2022/03/21 08:16:04;;;;;;;10.07;7.05;;;17.30;42.20;16.40;102764.00;;;;5055241;28;20037;-64
2022/03/21 08:18:50;;;;;;;10.13;7.97;;;17.40;42.30;16.40;102762.00;;;;5055016;28;20478;-65
2022/03/21 08:21:39;;;;;;;11.25;7.97;;;17.30;42.20;16.40;102761.00;;;;5064940;28;20040;-64
2022/03/21 08:24:26;;;;;;;10.00;7.75;;;17.40;42.20;16.40;102765.00;;;;5054327;28;20162;-64
2022/03/21 08:27:14;;;;;;;10.97;7.97;;;17.40;42.20;16.40;102760.00;;;;5059672;28;20445;-64
2022/03/21 08:30:00;;;;;;;11.68;7.38;;;17.40;42.20;16.50;102763.00;;;;5055044;28;20108;-64
2022/03/21 08:32:46;;;;;;;9.68;7.05;;;17.40;42.20;16.50;102758.00;;;;5055906;28;20041;-64
2022/03/21 08:35:35;;;;;;;9.07;7.95;;;17.40;42.10;16.50;102764.00;;;;5042307;28;20044;-64
2022/03/21 08:38:21;;;;;;;12.20;7.72;;;17.40;42.10;16.50;102764.00;;;;5045866;28;20037;-65
2022/03/21 08:41:07;;;;;;;11.98;7.55;;;17.40;42.10;16.50;102763.00;;;;5056880;28;20398;-64
2022/03/21 08:43:53;;;;;;;11.50;7.60;;;17.40;42.10;16.50;102766.00;;;;5065362;28;20041;-64
2022/03/21 08:46:39;;;;;;;13.40;7.95;;;17.40;42.10;16.50;102771.00;;;;5054904;28;20044;-64
2022/03/21 08:49:26;;;;;;;12.80;7.93;;;17.40;42.00;16.50;102770.00;;;;5057879;28;20520;-64
2022/03/21 08:52:13;;;;;;;10.95;7.85;;;17.40;41.90;16.50;102775.00;;;;5056934;28;20056;-64
2022/03/21 08:54:59;;;;;;;9.45;7.03;;;17.40;41.90;16.50;102769.00;;;;5056707;28;20481;-64
2022/03/21 08:57:45;;;;;;;12.38;8.30;;;17.50;41.90;16.50;102775.00;;;;5059589;28;20043;-64
2022/03/21 09:00:31;;;;;;;10.65;8.10;;;17.60;41.90;16.50;102780.00;;;;5060033;28;20079;-64
2022/03/21 09:03:17;;;;;;;11.07;7.75;;;17.50;41.90;16.50;102779.00;;;;5062876;28;20048;-64
2022/03/21 09:06:03;;;;;;;10.25;7.68;;;17.50;42.00;16.50;102776.00;;;;5063666;28;20044;-64
2022/03/21 09:08:49;;;;;;;9.77;7.53;;;17.50;41.90;16.50;102775.00;;;;5061515;28;20068;-64
2022/03/21 09:11:37;;;;;;;12.23;8.38;;;17.50;41.80;16.50;102780.00;;;;5064040;28;20405;-64
2022/03/21 09:14:23;;;;;;;10.93;7.60;;;17.50;41.80;16.50;102783.00;;;;5031983;28;20032;-64
2022/03/21 09:17:10;;;;;;;11.32;7.95;;;17.50;41.80;16.50;102785.00;;;;5059816;28;20041;-64
2022/03/21 09:19:56;;;;;;;11.23;7.95;;;17.40;41.80;16.50;102787.00;;;;5054519;28;20043;-64
2022/03/21 09:22:42;;;;;;;11.23;8.90;;;17.40;41.70;16.50;102776.00;;;;5053164;28;20044;-64
2022/03/21 09:25:28;;;;;;;11.75;8.20;;;17.50;41.70;16.50;102789.00;;;;5062875;28;20044;-64
2022/03/21 09:28:14;;;;;;;11.95;8.35;;;17.50;41.60;16.50;102781.00;;;;5057623;28;20117;-64
2022/03/21 09:31:00;;;;;;;11.85;7.93;;;17.50;41.60;16.50;102780.00;;;;5065836;28;20044;-64
2022/03/21 09:33:46;;;;;;;12.02;8.73;;;17.50;41.60;16.50;102780.00;;;;5054968;28;20045;-64
2022/03/21 09:36:33;;;;;;;10.50;7.97;;;17.50;41.60;16.50;102787.00;;;;5066943;28;20852;-64
2022/03/21 09:39:19;;;;;;;13.02;7.82;;;17.50;41.50;16.50;102780.00;;;;5071353;28;20115;-64
2022/03/21 09:42:05;;;;;;;10.65;8.25;;;17.50;41.50;16.50;102775.00;;;;5057672;28;20036;-64
2022/03/21 09:44:53;;;;;;;10.65;7.97;;;17.50;41.50;16.50;102780.00;;;;5057894;28;20048;-64
2022/03/21 09:50:50;;;;;;;11.37;7.93;;;17.50;41.50;16.50;102778.00;;;;5059869;28;20119;-64
2022/03/21 09:53:38;;;;;;;11.40;8.32;;;17.50;41.50;16.50;102785.00;;;;5063985;28;20064;-64
2022/03/21 09:56:25;;;;;;;10.40;7.63;;;17.50;41.40;16.50;102776.00;;;;5060675;28;20036;-64
2022/03/21 09:59:11;;;;;;;10.18;7.97;;;17.50;41.40;16.60;102777.00;;;;5059941;28;20044;-64
2022/03/21 10:02:02;;;;;;;10.38;7.80;;;17.50;41.40;16.60;102767.00;;;;5044189;28;20063;-64
2022/03/21 10:04:48;;;;;;;11.57;7.95;;;17.50;41.30;16.60;102773.00;;;;5051368;28;20072;-64
2022/03/21 10:07:34;;;;;;;11.32;8.88;;;17.50;41.40;16.60;102773.00;;;;5072891;28;20044;-64
2022/03/21 10:10:20;;;;;;;12.57;8.10;;;17.50;41.30;16.60;102774.00;;;;5047075;28;20415;-64
2022/03/21 10:13:09;;;;;;;12.45;8.98;;;17.60;41.40;16.60;102777.00;;;;5064191;28;20312;-64
2022/03/21 10:16:10;;;;;;;12.00;8.80;;;17.50;41.20;16.60;102772.00;;;;5064261;28;20392;-64
2022/03/21 10:18:57;;;;;;;14.18;8.63;;;17.50;41.20;16.60;102765.00;;;;5061938;28;20063;-64
2022/03/21 10:22:05;;;;;;;10.68;8.43;;;17.50;41.20;16.60;102763.00;;;;5061445;28;20040;-64
2022/03/21 10:24:51;;;;;;;11.88;8.57;;;17.50;41.10;16.60;102762.00;;;;5033752;28;20458;-64
2022/03/21 10:27:40;;;;;;;12.07;8.55;;;17.50;41.10;16.60;102763.00;;;;5064573;28;20044;-64
2022/03/21 10:30:26;;;;;;;;;;;17.60;41.10;16.60;102758.00;;;;5067101;28;20045;-64
2022/03/21 10:33:12;;;;;;;13.90;8.85;;;17.60;41.20;16.60;102762.00;;;;5060310;28;19917;-64
2022/03/21 10:36:05;;;;;;;12.82;9.02;;;17.60;41.10;16.60;102755.00;;;;5024626;28;20461;-64
2022/03/21 10:38:51;;;;;;;14.20;8.93;;;17.60;41.00;16.60;102759.00;;;;5049185;28;20036;-64
2022/03/21 10:41:39;;;;;;;14.70;9.48;;;17.60;41.00;16.60;102756.00;;;;5050049;28;20036;-64
2022/03/21 10:44:25;;;;;;;12.93;8.93;;;17.60;41.10;16.60;102757.00;;;;5062856;28;20032;-64
2022/03/21 10:47:11;;;;;;;13.13;9.05;;;17.60;41.10;16.60;102757.00;;;;5052057;28;20123;-65
2022/03/21 10:50:01;;;;;;;13.52;9.68;;;17.60;41.00;16.60;102765.00;;;;5060621;28;20355;-64
2022/03/21 10:53:10;;;;;;;14.43;9.30;;;17.60;41.00;16.60;102767.00;;;;5044232;28;20043;-64
2022/03/21 10:56:08;;;;;;;12.07;8.73;;;17.60;41.00;16.60;102767.00;;;;5049853;28;20090;-64
2022/03/21 10:58:54;;;;;;;14.05;9.45;;;17.60;41.00;16.60;102765.00;;;;5050935;28;20406;-64
2022/03/21 11:01:41;;;;;;;15.07;9.57;;;17.60;41.00;16.60;102755.00;;;;5055504;28;20036;-64
2022/03/21 11:04:27;;;;;;;15.32;10.18;;;17.60;41.00;16.60;102752.00;;;;5053007;28;20071;-64
2022/03/21 11:07:13;;;;;;;13.00;9.45;;;17.60;40.90;16.60;102756.00;;;;5053719;28;20541;-64
2022/03/21 11:09:59;;;;;;;12.40;9.23;;;17.50;40.90;16.60;102754.00;;;;5071442;28;20064;-64
2022/03/21 11:12:45;;;;;;;12.15;9.15;;;17.60;41.00;16.60;102758.00;;;;5050286;28;20047;-64
2022/03/21 11:15:32;;;;;;;12.27;9.20;;;17.60;41.00;16.70;102754.00;;;;5055887;28;20032;-64
2022/03/21 11:18:20;;;;;;;13.13;9.07;;;17.60;41.10;16.70;102753.00;;;;5064461;28;20072;-64
2022/03/21 11:21:11;;;;;;;14.20;9.23;;;17.60;41.00;16.70;102746.00;;;;5044237;28;20513;-64
2022/03/21 11:23:57;;;;;;;13.60;9.35;;;17.60;41.00;16.70;102753.00;;;;5058871;28;20045;-64
2022/03/21 11:27:41;;;;;;;12.07;8.60;;;17.60;40.90;16.70;102748.00;;;;5047686;28;20490;-64
2022/03/21 11:31:05;;;;;;;11.23;7.95;;;17.70;41.80;16.70;102746.00;;;;5051814;28;20510;-64
2022/03/21 11:34:26;;;;;;;11.13;8.20;;;17.70;41.10;16.70;102749.00;;;;5054794;28;20036;-65
2022/03/21 11:37:32;;;;;;;11.27;8.55;;;17.70;41.00;16.70;102748.00;;;;5041197;28;20045;-64
2022/03/21 11:40:35;;;;;;;12.32;8.73;;;17.70;41.00;16.70;102753.00;;;;5057828;28;20041;-64
2022/03/21 11:43:21;;;;;;;11.40;8.10;;;17.70;41.10;16.70;102754.00;;;;5045432;28;20057;-64
2022/03/21 11:46:29;;;;;;;12.55;8.48;;;17.70;41.10;16.70;102750.00;;;;5058786;28;20040;-65
2022/03/21 11:49:18;;;;;;;10.20;7.35;;;17.70;41.10;16.70;102751.00;;;;5045305;28;20083;-64
2022/03/21 11:52:04;;;;;;;11.75;8.57;;;17.70;41.10;16.70;102736.00;;;;5055591;28;20044;-64
2022/03/21 11:54:50;;;;;;;11.77;8.55;;;17.70;41.00;16.70;102739.00;;;;5057433;28;20040;-65
2022/03/21 11:57:38;;;;;;;12.20;8.50;;;17.80;41.10;16.80;102739.00;;;;5040604;28;20661;-65
2022/03/21 12:00:26;;;;;;;;;;;17.80;41.10;16.70;102742.00;;;;5054639;28;20386;-64
2022/03/21 12:03:25;;;;;;;12.10;8.90;;;17.80;41.20;16.70;102733.00;;;;5057884;28;20322;-65
2022/03/21 12:06:30;;;;;;;12.02;8.52;;;17.80;41.00;16.70;102737.00;;;;5045337;28;20040;-64
2022/03/21 12:09:16;;;;;;;11.90;8.18;;;17.80;41.00;16.70;102732.00;;;;5048580;28;20556;-64
2022/03/21 12:12:03;;;;;;;11.70;8.32;;;17.80;41.10;16.80;102722.00;;;;5045190;28;20053;-64
2022/03/21 12:14:58;;;;;;;11.50;8.43;;;17.80;41.10;16.80;102727.00;;;;5057787;28;20037;-65
2022/03/21 12:17:47;;;;;;;12.40;8.30;;;17.80;41.10;16.80;102723.00;;;;5060559;28;20032;-64
2022/03/21 12:20:46;;;;;;;10.35;8.00;;;17.80;41.10;16.80;102716.00;;;;5061493;28;20059;-64
2022/03/21 12:23:32;;;;;;;11.77;8.32;;;17.80;41.10;16.80;102716.00;;;;5048311;28;20043;-64
2022/03/21 12:26:32;;;;;;;10.82;8.00;;;17.80;41.10;16.80;102716.00;;;;5048389;28;20036;-65
2022/03/21 12:29:32;;;;;;;12.05;7.47;;;17.80;41.10;16.80;102713.00;;;;5054419;28;20048;-65
2022/03/21 12:32:25;;;;;;;9.98;7.82;;;17.80;41.10;16.80;102719.00;;;;5068551;28;20421;-65
2022/03/21 12:35:35;;;;;;;9.77;7.75;;;17.80;41.10;16.80;102715.00;;;;5039992;28;20067;-65
2022/03/21 12:38:34;;;;;;;11.32;7.65;;;17.90;41.10;16.80;102713.00;;;;5056508;28;20060;-65
2022/03/21 12:41:20;;;;;;;10.63;7.65;;;17.90;41.10;16.80;102708.00;;;;5059130;28;20041;-65